Time;durP1;ratioP1;P1;durP2;ratioP2;P2;SDS_P1;SDS_P2;PMS_P1;PMS_P2;Temp;Humidity;BMP_temperature;BMP_pressure;BME280_temperature;BME280_humidity;BME280_pressure;Samples;Min_cycle;Max_cycle;Signal;HPM_P1;HPM_P2
2020/12/24 00:01:48;;;;;;;4.6;2.4;;;;;;;;;;;;;
2020/12/24 00:04:13;;;;;;;3.6;1.8;;;;;;;;;;;;;
2020/12/24 00:06:38;;;;;;;5.7;1.9;;;;;;;;;;;;;
2020/12/24 00:09:03;;;;;;;2.6;1.8;;;;;;;;;;;;;
2020/12/24 00:11:29;;;;;;;4.6;1.9;;;;;;;;;;;;;
2020/12/24 00:13:55;;;;;;;4.3;1.5;;;;;;;;;;;;;
2020/12/24 00:16:22;;;;;;;2.5;1.9;;;;;;;;;;;;;
2020/12/24 00:18:47;;;;;;;4;2.3;;;;;;;;;;;;;
2020/12/24 00:21:12;;;;;;;2.6;1.6;;;;;;;;;;;;;
2020/12/24 00:23:37;;;;;;;4.1;1.8;;;;;;;;;;;;;
2020/12/24 00:26:03;;;;;;;4.3;1.4;;;;;;;;;;;;;
2020/12/24 00:28:28;;;;;;;2.7;1.3;;;;;;;;;;;;;
2020/12/24 00:30:56;;;;;;;1.2;0.9;;;;;;;;;;;;;
2020/12/24 00:33:21;;;;;;;1.1;0.8;;;;;;;;;;;;;
2020/12/24 00:35:46;;;;;;;1.7;0.7;;;;;;;;;;;;;
2020/12/24 00:38:11;;;;;;;3;1.5;;;;;;;;;;;;;
2020/12/24 00:40:42;;;;;;;2.3;1.4;;;;;;;;;;;;;
2020/12/24 00:43:07;;;;;;;2.7;1.1;;;;;;;;;;;;;
2020/12/24 00:45:32;;;;;;;2.2;1.4;;;;;;;;;;;;;
2020/12/24 00:47:59;;;;;;;6.7;3.1;;;;;;;;;;;;;
2020/12/24 00:50:24;;;;;;;264.3;128.3;;;;;;;;;;;;;
2020/12/24 00:52:50;;;;;;;6.5;2.8;;;;;;;;;;;;;
2020/12/24 00:55:16;;;;;;;3.4;1.9;;;;;;;;;;;;;
2020/12/24 00:57:41;;;;;;;1.9;1;;;;;;;;;;;;;
2020/12/24 01:00:07;;;;;;;2.3;1.2;;;;;;;;;;;;;
2020/12/24 01:02:31;;;;;;;2;1;;;;;;;;;;;;;
2020/12/24 01:04:57;;;;;;;3.6;1.5;;;;;;;;;;;;;
2020/12/24 01:07:22;;;;;;;2;1.5;;;;;;;;;;;;;
2020/12/24 01:09:47;;;;;;;2.9;1.8;;;;;;;;;;;;;
2020/12/24 01:12:12;;;;;;;2.7;2;;;;;;;;;;;;;
2020/12/24 01:14:37;;;;;;;4.5;2.1;;;;;;;;;;;;;
2020/12/24 01:17:02;;;;;;;4.6;2.1;;;;;;;;;;;;;
2020/12/24 01:19:28;;;;;;;1.6;1.3;;;;;;;;;;;;;
2020/12/24 01:21:53;;;;;;;3.7;1.5;;;;;;;;;;;;;
2020/12/24 01:24:19;;;;;;;2.4;1.4;;;;;;;;;;;;;
2020/12/24 01:26:45;;;;;;;3.5;1.8;;;;;;;;;;;;;
2020/12/24 01:29:10;;;;;;;2.6;1.6;;;;;;;;;;;;;
2020/12/24 01:31:36;;;;;;;2.9;1.2;;;;;;;;;;;;;
2020/12/24 01:34:02;;;;;;;1.2;1.1;;;;;;;;;;;;;
2020/12/24 01:36:27;;;;;;;1.5;1.3;;;;;;;;;;;;;
2020/12/24 01:38:53;;;;;;;5.4;1.8;;;;;;;;;;;;;
2020/12/24 01:41:18;;;;;;;3.7;1.6;;;;;;;;;;;;;
2020/12/24 01:43:43;;;;;;;3.1;1.5;;;;;;;;;;;;;
2020/12/24 01:46:08;;;;;;;4.7;2.3;;;;;;;;;;;;;
2020/12/24 01:48:33;;;;;;;7.7;3;;;;;;;;;;;;;
2020/12/24 01:50:58;;;;;;;5.7;2.4;;;;;;;;;;;;;
2020/12/24 01:53:23;;;;;;;5.9;3.5;;;;;;;;;;;;;
2020/12/24 01:55:49;;;;;;;6.4;3.1;;;;;;;;;;;;;
2020/12/24 01:58:14;;;;;;;11.7;5.6;;;;;;;;;;;;;
2020/12/24 02:00:41;;;;;;;2.3;1.5;;;;;;;;;;;;;
2020/12/24 02:03:06;;;;;;;1.5;1.1;;;;;;;;;;;;;
2020/12/24 02:05:32;;;;;;;1.1;0.9;;;;;;;;;;;;;
2020/12/24 02:07:58;;;;;;;1.2;0.7;;;;;;;;;;;;;
2020/12/24 02:10:25;;;;;;;1.6;1;;;;;;;;;;;;;
2020/12/24 02:12:50;;;;;;;1.1;1;;;;;;;;;;;;;
2020/12/24 02:15:16;;;;;;;1.4;1;;;;;;;;;;;;;
2020/12/24 02:17:41;;;;;;;2.1;1.8;;;;;;;;;;;;;
2020/12/24 02:20:07;;;;;;;1.7;1.1;;;;;;;;;;;;;
2020/12/24 02:22:32;;;;;;;0.9;0.7;;;;;;;;;;;;;
2020/12/24 02:24:58;;;;;;;1.1;0.6;;;;;;;;;;;;;
2020/12/24 02:27:23;;;;;;;1.3;0.9;;;;;;;;;;;;;
2020/12/24 02:29:49;;;;;;;1.4;1;;;;;;;;;;;;;
2020/12/24 02:32:14;;;;;;;1.9;1.2;;;;;;;;;;;;;
2020/12/24 02:34:40;;;;;;;1.3;1;;;;;;;;;;;;;
2020/12/24 02:37:07;;;;;;;1.6;1.1;;;;;;;;;;;;;
2020/12/24 02:39:31;;;;;;;1.6;1.2;;;;;;;;;;;;;
2020/12/24 02:41:56;;;;;;;3.2;1;;;;;;;;;;;;;
2020/12/24 02:44:23;;;;;;;1.2;0.9;;;;;;;;;;;;;
2020/12/24 02:46:48;;;;;;;1.3;1;;;;;;;;;;;;;
2020/12/24 02:49:13;;;;;;;0.8;0.8;;;;;;;;;;;;;
2020/12/24 02:51:38;;;;;;;2.3;1;;;;;;;;;;;;;
2020/12/24 02:54:03;;;;;;;1.1;0.7;;;;;;;;;;;;;
2020/12/24 02:56:28;;;;;;;1.4;0.7;;;;;;;;;;;;;
2020/12/24 02:58:53;;;;;;;0.8;0.7;;;;;;;;;;;;;
2020/12/24 03:01:20;;;;;;;1;0.7;;;;;;;;;;;;;
2020/12/24 03:03:45;;;;;;;0.6;0.6;;;;;;;;;;;;;
2020/12/24 03:06:10;;;;;;;2.3;0.7;;;;;;;;;;;;;
2020/12/24 03:08:35;;;;;;;1.7;0.8;;;;;;;;;;;;;
2020/12/24 03:11:05;;;;;;;1.7;0.9;;;;;;;;;;;;;
2020/12/24 03:13:30;;;;;;;1.2;1;;;;;;;;;;;;;
2020/12/24 03:15:55;;;;;;;1.6;0.9;;;;;;;;;;;;;
2020/12/24 03:18:20;;;;;;;1.3;0.8;;;;;;;;;;;;;
2020/12/24 03:20:45;;;;;;;1.1;0.7;;;;;;;;;;;;;
2020/12/24 03:23:10;;;;;;;1.2;0.8;;;;;;;;;;;;;
2020/12/24 03:25:36;;;;;;;1;0.7;;;;;;;;;;;;;
2020/12/24 03:28:02;;;;;;;1;0.8;;;;;;;;;;;;;
2020/12/24 03:30:28;;;;;;;1.4;0.7;;;;;;;;;;;;;
2020/12/24 03:32:53;;;;;;;1;0.5;;;;;;;;;;;;;
2020/12/24 03:35:19;;;;;;;3.3;0.7;;;;;;;;;;;;;
2020/12/24 03:37:44;;;;;;;2.5;1.1;;;;;;;;;;;;;
2020/12/24 03:40:10;;;;;;;1;0.9;;;;;;;;;;;;;
2020/12/24 03:42:36;;;;;;;1.9;0.9;;;;;;;;;;;;;
2020/12/24 03:45:01;;;;;;;1.4;0.9;;;;;;;;;;;;;
2020/12/24 03:47:26;;;;;;;1.9;1.2;;;;;;;;;;;;;
2020/12/24 03:49:52;;;;;;;3.1;1.2;;;;;;;;;;;;;
2020/12/24 03:52:18;;;;;;;1.4;1.3;;;;;;;;;;;;;
2020/12/24 03:54:44;;;;;;;1.7;1.2;;;;;;;;;;;;;
2020/12/24 03:57:09;;;;;;;3.8;1.2;;;;;;;;;;;;;
2020/12/24 03:59:35;;;;;;;1.6;1;;;;;;;;;;;;;
2020/12/24 04:02:34;;;;;;;1.6;1.2;;;;;;;6.38;81.06641;934.1187;;;;
2020/12/24 04:05:03;;;;;;;1.8;1.1;;;;;;;6.53;80.5752;934.1541;;;;
2020/12/24 04:07:28;;;;;;;1.5;1;;;;;;;6.53;80.36035;934.2181;;;;
2020/12/24 04:09:54;;;;;;;1.1;1;;;;;;;6.45;80.43555;934.1914;;;;
2020/12/24 04:12:19;;;;;;;1.5;0.9;;;;;;;6.49;80.52148;934.1676;;;;
2020/12/24 04:14:46;;;;;;;3.5;1.2;;;;;;;6.55;80.47852;934.2099;;;;
2020/12/24 04:17:11;;;;;;;1.3;0.8;;;;;;;6.51;81.19336;934.2361;;;;
2020/12/24 04:19:38;;;;;;;1.2;1;;;;;;;6.61;80.82617;934.1665;;;;
2020/12/24 04:22:03;;;;;;;1.5;1;;;;;;;6.61;80.78223;934.1021;;;;
2020/12/24 04:24:31;;;;;;;2.5;1.3;;;;;;;6.66;80.80273;934.0981;;;;
2020/12/24 04:26:56;;;;;;;1.3;1;;;;;;;6.72;80.82422;934.012;;;;
2020/12/24 04:29:23;;;;;;;1.3;1;;;;;;;6.62;80.5127;934.0255;;;;
2020/12/24 04:31:48;;;;;;;1.5;1.1;;;;;;;6.6;81.85547;934.187;;;;
2020/12/24 04:34:14;;;;;;;2.4;1.4;;;;;;;6.33;83.2832;934.2671;;;;
2020/12/24 04:36:40;;;;;;;2.5;1.6;;;;;;;6.04;84.39258;934.2307;;;;
2020/12/24 04:39:05;;;;;;;2.2;1.4;;;;;;;6.19;84.53418;934.1805;;;;
2020/12/24 04:41:30;;;;;;;2.4;1.2;;;;;;;6.35;84.44238;934.2067;;;;
2020/12/24 04:43:57;;;;;;;1.9;1.3;;;;;;;6.43;84.54688;934.3033;;;;
2020/12/24 04:46:22;;;;;;;1.8;0.9;;;;;;;6.51;84.73438;934.293;;;;
2020/12/24 04:48:50;;;;;;;5.2;2.2;;;;;;;6.28;85.36621;934.267;;;;
2020/12/24 04:51:16;;;;;;;3.3;1.7;;;;;;;6.34;85.47852;934.2191;;;;
2020/12/24 04:53:43;;;;;;;2.9;1.4;;;;;;;6.33;85.72559;934.2228;;;;
2020/12/24 04:56:08;;;;;;;2.4;1.6;;;;;;;6.37;85.80273;934.3145;;;;
2020/12/24 04:58:38;;;;;;;1.5;0.9;;;;;;;6.45;85.58105;934.2017;;;;
2020/12/24 05:01:03;;;;;;;5;1.3;;;;;;;6.3;85.92578;934.1544;;;;
2020/12/24 05:03:28;;;;;;;1.6;0.7;;;;;;;6.22;86.22363;934.2311;;;;
2020/12/24 05:05:57;;;;;;;1;0.9;;;;;;;6.28;86.60938;934.188;;;;
2020/12/24 05:08:20;;;;;;;3.6;1.1;;;;;;;6.4;86.31641;934.2043;;;;
2020/12/24 05:10:49;;;;;;;14.2;10.2;;;;;;;6.43;86.50488;934.233;;;;
2020/12/24 05:13:14;;;;;;;114.6;66.6;;;;;;;6.36;87.27051;934.1848;;;;
2020/12/24 05:15:44;;;;;;;5.4;3.3;;;;;;;6.38;87.20605;934.2184;;;;
2020/12/24 05:18:13;;;;;;;2.5;1.7;;;;;;;6.43;87.55664;934.3809;;;;
2020/12/24 05:20:39;;;;;;;5.4;3.3;;;;;;;6.53;87.3623;934.4207;;;;
2020/12/24 05:23:08;;;;;;;7.3;3.7;;;;;;;6.57;87.13184;934.355;;;;
2020/12/24 05:25:36;;;;;;;4.9;3.1;;;;;;;6.53;87.10156;934.2744;;;;
2020/12/24 05:28:04;;;;;;;5.9;3.4;;;;;;;6.62;87.05273;934.4171;;;;
2020/12/24 05:30:34;;;;;;;3.3;2.6;;;;;;;6.73;86.80078;934.4197;;;;
2020/12/24 05:33:02;;;;;;;3.5;2.3;;;;;;;6.71;86.70898;934.4114;;;;
2020/12/24 05:35:27;;;;;;;4.3;2;;;;;;;6.69;86.60156;934.3565;;;;
2020/12/24 05:37:54;;;;;;;2.6;1.7;;;;;;;6.66;86.74316;934.4003;;;;
2020/12/24 05:40:19;;;;;;;1.3;1.2;;;;;;;6.67;86.85938;934.49;;;;
2020/12/24 05:42:46;;;;;;;4.5;1.9;;;;;;;6.69;86.96387;934.5513;;;;
2020/12/24 05:45:11;;;;;;;4.9;1.7;;;;;;;6.64;87.38379;934.529;;;;
2020/12/24 05:47:36;;;;;;;4;2.4;;;;;;;6.55;87.16406;934.4915;;;;
2020/12/24 05:50:03;;;;;;;1.5;1.2;;;;;;;6.58;86.81738;934.5528;;;;
2020/12/24 05:52:28;;;;;;;4.3;1.8;;;;;;;6.57;86.92871;934.5273;;;;
2020/12/24 05:54:54;;;;;;;2.8;1;;;;;;;6.6;87.03516;934.6156;;;;
2020/12/24 05:57:20;;;;;;;1.4;1.3;;;;;;;6.7;86.86328;934.6145;;;;
2020/12/24 05:59:46;;;;;;;2.1;1.4;;;;;;;6.61;87.04883;934.5414;;;;
2020/12/24 06:02:14;;;;;;;2.7;1.4;;;;;;;6.67;86.88281;934.4567;;;;
2020/12/24 06:04:39;;;;;;;2.2;1.1;;;;;;;6.65;87.08105;934.4239;;;;
2020/12/24 06:07:05;;;;;;;1.2;1.1;;;;;;;6.51;87.84277;934.5405;;;;
2020/12/24 06:09:30;;;;;;;1.3;1;;;;;;;6.51;88.18457;934.4765;;;;
2020/12/24 06:11:55;;;;;;;4;1.3;;;;;;;6.52;88.43262;934.3918;;;;
2020/12/24 06:14:20;;;;;;;2.1;1.4;;;;;;;6.51;88.63477;934.3491;;;;
2020/12/24 06:16:46;;;;;;;2.1;1.4;;;;;;;6.55;88.51074;934.4266;;;;
2020/12/24 06:19:12;;;;;;;3.3;1.4;;;;;;;6.37;89.15918;934.4166;;;;
2020/12/24 06:21:37;;;;;;;2.2;1.2;;;;;;;6.33;89.83008;934.2609;;;;
2020/12/24 06:24:04;;;;;;;1.8;1;;;;;;;6.33;90.02246;934.3463;;;;
2020/12/24 06:26:29;;;;;;;1.5;1.2;;;;;;;6.46;89.74512;934.2794;;;;
2020/12/24 06:28:55;;;;;;;2.3;1.4;;;;;;;6.49;89.7168;934.295;;;;
2020/12/24 06:31:20;;;;;;;2.4;1.1;;;;;;;6.36;90.1748;934.3303;;;;
2020/12/24 06:33:46;;;;;;;4.2;1.7;;;;;;;6.29;90.09375;934.3203;;;;
2020/12/24 06:36:11;;;;;;;1.5;1.3;;;;;;;6.28;90.06934;934.2955;;;;
2020/12/24 06:38:37;;;;;;;5.4;1.7;;;;;;;6.45;89.54004;934.231;;;;
2020/12/24 06:41:02;;;;;;;2.5;1.4;;;;;;;6.56;89.13281;934.2456;;;;
2020/12/24 06:43:27;;;;;;;2.7;1.5;;;;;;;6.41;89.67773;934.2675;;;;
2020/12/24 06:45:54;;;;;;;2;1.4;;;;;;;6.45;89.86816;934.2127;;;;
2020/12/24 06:48:21;;;;;;;1.6;1.2;;;;;;;6.42;89.96191;933.9805;;;;
2020/12/24 06:50:47;;;;;;;1.9;1.3;;;;;;;6.52;89.70215;933.9839;;;;
2020/12/24 06:53:12;;;;;;;2.6;1.2;;;;;;;6.48;89.60156;933.9673;;;;
2020/12/24 06:55:37;;;;;;;3.7;1.6;;;;;;;6.47;89.81641;933.9522;;;;
2020/12/24 06:58:02;;;;;;;2.3;1.5;;;;;;;6.51;89.83398;933.892;;;;
2020/12/24 07:00:28;;;;;;;1.6;1.5;;;;;;;6.55;89.57129;933.8555;;;;
2020/12/24 07:02:53;;;;;;;1.9;1.2;;;;;;;6.64;89.2627;933.8929;;;;
2020/12/24 07:05:18;;;;;;;2.8;1.8;;;;;;;6.74;88.8418;933.9253;;;;
2020/12/24 07:07:44;;;;;;;2.4;1.3;;;;;;;6.74;88.61523;934.0179;;;;
2020/12/24 07:10:13;;;;;;;2.4;1.4;;;;;;;6.68;88.74902;934.024;;;;
2020/12/24 07:12:39;;;;;;;1.7;1.2;;;;;;;6.73;88.80566;934.0297;;;;
2020/12/24 07:15:04;;;;;;;2;1.1;;;;;;;6.76;88.55176;934.0413;;;;
2020/12/24 07:17:33;;;;;;;1.9;1.1;;;;;;;6.82;88.29102;934.1027;;;;
2020/12/24 07:19:58;;;;;;;2.3;1.2;;;;;;;6.88;88.12305;934.1519;;;;
2020/12/24 07:22:24;;;;;;;1.7;1.3;;;;;;;6.9;87.89063;934.1167;;;;
2020/12/24 07:24:49;;;;;;;1.8;1;;;;;;;6.87;88.21094;934.0837;;;;
2020/12/24 07:27:18;;;;;;;1.4;1.1;;;;;;;6.88;88.06836;934.0555;;;;
2020/12/24 07:29:45;;;;;;;1.7;1.3;;;;;;;6.89;88.18262;934.1071;;;;
2020/12/24 07:32:11;;;;;;;1.6;1.1;;;;;;;6.92;88.1416;934.0765;;;;
2020/12/24 07:34:38;;;;;;;2;1.2;;;;;;;6.92;87.89258;934.0133;;;;
2020/12/24 07:37:03;;;;;;;2.2;1.4;;;;;;;6.95;87.97949;934.0067;;;;
2020/12/24 07:39:32;;;;;;;1.8;1.3;;;;;;;6.94;88;933.9336;;;;
2020/12/24 07:41:57;;;;;;;1.7;1.1;;;;;;;6.84;88.24023;933.9978;;;;
2020/12/24 07:44:22;;;;;;;3.9;2.1;;;;;;;6.8;88.47949;933.992;;;;
2020/12/24 07:46:47;;;;;;;4.6;2.4;;;;;;;6.83;88.50977;934.0173;;;;
2020/12/24 07:49:12;;;;;;;6.6;2.6;;;;;;;6.79;89.64551;934.0829;;;;
2020/12/24 07:51:37;;;;;;;5.9;3.1;;;;;;;6.82;89.35645;933.9383;;;;
2020/12/24 07:54:06;;;;;;;4.9;2.8;;;;;;;6.88;88.9043;933.9715;;;;
2020/12/24 07:56:31;;;;;;;6.3;2.3;;;;;;;6.86;88.74316;933.9483;;;;
2020/12/24 07:58:58;;;;;;;3.2;2;;;;;;;6.84;89.10059;933.8965;;;;
2020/12/24 08:01:23;;;;;;;3.4;2.3;;;;;;;6.85;89.03418;933.8254;;;;
2020/12/24 08:03:52;;;;;;;8;2.2;;;;;;;6.84;89.21289;933.72;;;;
2020/12/24 08:06:17;;;;;;;2.9;2.1;;;;;;;6.77;89.50391;933.7043;;;;
2020/12/24 08:08:44;;;;;;;4.1;2;;;;;;;6.8;89.6582;933.6898;;;;
2020/12/24 08:11:10;;;;;;;2.7;1.6;;;;;;;6.87;89.51367;933.4966;;;;
2020/12/24 08:13:36;;;;;;;6;1.9;;;;;;;6.85;89.46387;933.6292;;;;
2020/12/24 08:16:01;;;;;;;2.8;2.1;;;;;;;6.73;89.91504;933.7242;;;;
2020/12/24 08:18:31;;;;;;;5.5;1.8;;;;;;;6.75;89.96387;933.5933;;;;
2020/12/24 08:20:57;;;;;;;1.8;1.5;;;;;;;6.76;89.97754;933.6314;;;;
2020/12/24 08:23:22;;;;;;;1.9;1.3;;;;;;;6.88;90.04688;933.5718;;;;
2020/12/24 08:25:47;;;;;;;2.6;1.5;;;;;;;6.95;89.83594;933.5825;;;;
2020/12/24 08:28:12;;;;;;;2.3;1.9;;;;;;;6.86;89.97754;933.6309;;;;
2020/12/24 08:30:37;;;;;;;1.5;1.2;;;;;;;6.92;89.88477;933.5986;;;;
2020/12/24 08:33:04;;;;;;;2;1.3;;;;;;;6.99;89.69824;933.5553;;;;
2020/12/24 08:35:29;;;;;;;6.2;2.6;;;;;;;6.9;89.79297;933.4645;;;;
2020/12/24 08:37:55;;;;;;;7.1;3.6;;;;;;;6.8;90.30176;933.5188;;;;
2020/12/24 08:40:20;;;;;;;9.2;4.3;;;;;;;6.66;90.94141;933.4368;;;;
2020/12/24 08:42:45;;;;;;;6.1;3.1;;;;;;;6.57;91.45313;933.4754;;;;
2020/12/24 08:45:17;;;;;;;7;3.6;;;;;;;6.53;91.69434;933.4163;;;;
2020/12/24 08:47:42;;;;;;;3.3;2.2;;;;;;;6.51;92.1416;933.4189;;;;
2020/12/24 08:50:12;;;;;;;3;2.2;;;;;;;6.58;92.125;933.4171;;;;
2020/12/24 08:52:38;;;;;;;1.5;1.3;;;;;;;6.74;91.62598;933.3937;;;;
2020/12/24 08:55:03;;;;;;;6.5;2.8;;;;;;;6.85;90.87012;933.3895;;;;
2020/12/24 08:57:28;;;;;;;1.8;1.4;;;;;;;7.02;90.11133;933.3527;;;;
2020/12/24 08:59:54;;;;;;;8.4;3.2;;;;;;;7.12;89.49805;933.3336;;;;
2020/12/24 09:02:19;;;;;;;5.7;1.7;;;;;;;7.14;88.66504;933.3505;;;;
2020/12/24 09:04:44;;;;;;;3;2;;;;;;;7.09;88.24609;933.2816;;;;
2020/12/24 09:07:11;;;;;;;1.7;1;;;;;;;7.27;87.9082;933.141;;;;
2020/12/24 09:09:36;;;;;;;0.7;0.7;;;;;;;7.44;87.19629;933.2434;;;;
2020/12/24 09:12:02;;;;;;;0.7;0.7;;;;;;;7.52;86.44238;933.1652;;;;
2020/12/24 09:14:28;;;;;;;3.5;0.9;;;;;;;7.7;85.90918;933.1978;;;;
2020/12/24 09:16:55;;;;;;;0.8;0.6;;;;;;;7.75;86.10156;933.2079;;;;
2020/12/24 09:19:20;;;;;;;0.6;0.6;;;;;;;7.77;86.21875;933.0955;;;;
2020/12/24 09:21:47;;;;;;;0.8;0.5;;;;;;;7.67;86.25586;933.111;;;;
2020/12/24 09:24:12;;;;;;;0.3;0.3;;;;;;;7.75;84.97852;933.1944;;;;
2020/12/24 09:26:39;;;;;;;9.1;0.7;;;;;;;7.85;85.08008;933.1942;;;;
2020/12/24 09:29:04;;;;;;;0.6;0.6;;;;;;;8.01;84.24707;933.0123;;;;
2020/12/24 09:31:32;;;;;;;0.3;0.3;;;;;;;8.21;82.29883;933.0338;;;;
2020/12/24 09:34:00;;;;;;;0.9;0.5;;;;;;;8.51;82.4375;933.0528;;;;
2020/12/24 09:36:25;;;;;;;0.2;0.2;;;;;;;8.74;81.7627;932.9383;;;;
2020/12/24 09:38:52;;;;;;;0.2;0.2;;;;;;;8.89;80.94824;932.9659;;;;
2020/12/24 09:41:17;;;;;;;0.5;0.2;;;;;;;9.08;80.63281;932.9603;;;;
2020/12/24 09:43:42;;;;;;;0.3;0.3;;;;;;;9.29;80.14844;932.9149;;;;
2020/12/24 09:46:07;;;;;;;0.9;0.4;;;;;;;9.46;79.71289;932.8358;;;;
2020/12/24 09:48:34;;;;;;;1.3;0.7;;;;;;;9.56;79.76758;932.8235;;;;
2020/12/24 09:50:59;;;;;;;1.1;0.8;;;;;;;9.69;78.73047;932.8013;;;;
2020/12/24 09:53:25;;;;;;;3.2;1.7;;;;;;;9.76;77.96875;932.8787;;;;
2020/12/24 09:55:50;;;;;;;4.1;1.8;;;;;;;9.84;77.06055;932.9373;;;;
2020/12/24 09:58:18;;;;;;;3.5;2.1;;;;;;;9.72;78.40527;932.8784;;;;
2020/12/24 10:00:46;;;;;;;6.4;1.9;;;;;;;9.49;77.08691;932.8987;;;;
2020/12/24 10:03:14;;;;;;;4.5;2.1;;;;;;;9.36;77.88379;932.843;;;;
2020/12/24 10:05:39;;;;;;;5;2;;;;;;;9.49;78.20313;932.8113;;;;
2020/12/24 10:08:04;;;;;;;1.7;1.3;;;;;;;9.37;77.71484;932.7969;;;;
2020/12/24 10:10:32;;;;;;;3.4;1.7;;;;;;;9.22;78.70215;932.7469;;;;
2020/12/24 10:12:57;;;;;;;1.8;1.1;;;;;;;9.11;77.94043;932.6777;;;;
2020/12/24 10:15:26;;;;;;;2.7;1.2;;;;;;;9.11;79.64746;932.7039;;;;
2020/12/24 10:17:56;;;;;;;37.5;17.3;;;;;;;9.18;78.75098;932.5597;;;;
2020/12/24 10:20:20;;;;;;;1.3;1;;;;;;;9.26;78.53809;932.6145;;;;
2020/12/24 10:22:45;;;;;;;80.7;37.5;;;;;;;9.54;78.97656;932.5278;;;;
2020/12/24 10:25:11;;;;;;;1.9;0.7;;;;;;;9.7;77.53418;932.3951;;;;
2020/12/24 10:27:37;;;;;;;0.9;0.7;;;;;;;9.79;75.93164;932.447;;;;
2020/12/24 10:30:02;;;;;;;16.9;7.8;;;;;;;9.89;73.7959;932.423;;;;
2020/12/24 10:32:27;;;;;;;2.4;1.5;;;;;;;10.23;73.75098;932.3361;;;;
2020/12/24 10:34:53;;;;;;;44;18;;;;;;;10.19;71.75977;932.3434;;;;
2020/12/24 10:37:18;;;;;;;1.4;1.1;;;;;;;10.49;72.43848;932.253;;;;
2020/12/24 10:39:44;;;;;;;1;0.7;;;;;;;10.83;72.88281;932.3194;;;;
2020/12/24 10:42:11;;;;;;;4.3;2.8;;;;;;;11.23;72.33203;932.3589;;;;
2020/12/24 10:44:36;;;;;;;9.1;4.3;;;;;;;11.33;70.38086;932.302;;;;
2020/12/24 10:47:02;;;;;;;3.4;1.7;;;;;;;11.14;69.60742;932.1947;;;;
2020/12/24 10:49:27;;;;;;;5.7;2.7;;;;;;;10.9;69.45508;932.187;;;;
2020/12/24 10:51:52;;;;;;;0.5;0.3;;;;;;;10.25;71.22266;932.0544;;;;
2020/12/24 10:54:20;;;;;;;8.9;4.5;;;;;;;9.98;74.16504;932.0486;;;;
2020/12/24 10:56:45;;;;;;;2.2;1.6;;;;;;;9.89;73.7168;932.1836;;;;
2020/12/24 10:59:11;;;;;;;2.6;2;;;;;;;9.49;73.6582;932.0547;;;;
2020/12/24 11:01:37;;;;;;;0.4;0.3;;;;;;;9.56;73.5;932.0002;;;;
2020/12/24 11:04:05;;;;;;;0.9;0.6;;;;;;;9.83;74.0459;932.0212;;;;
2020/12/24 11:06:33;;;;;;;1;0.7;;;;;;;10.04;73.55859;931.9344;;;;
2020/12/24 11:08:54;;;;;;;0.9;0.5;;;;;;;10.15;71.70801;931.9353;;;;
2020/12/24 11:11:21;;;;;;;0.3;0.3;;;;;;;10.11;74.59766;931.8836;;;;
2020/12/24 11:13:46;;;;;;;0.6;0.2;;;;;;;9.83;75.63184;931.8979;;;;
2020/12/24 11:16:14;;;;;;;0.5;0.1;;;;;;;9.88;75.44824;931.8791;;;;
2020/12/24 11:18:39;;;;;;;0;0;;;;;;;10.08;75.5166;931.9464;;;;
2020/12/24 11:21:07;;;;;;;0.3;0.3;;;;;;;10.17;75.47559;931.9703;;;;
2020/12/24 11:23:31;;;;;;;0.2;0.2;;;;;;;10.24;74.3457;931.9494;;;;
2020/12/24 11:25:58;;;;;;;0.3;0.2;;;;;;;10.66;72.72852;931.8789;;;;
2020/12/24 11:28:23;;;;;;;0.1;0.1;;;;;;;10.6;71.8623;931.8349;;;;
2020/12/24 11:30:48;;;;;;;0.5;0.3;;;;;;;10.39;73.60742;931.772;;;;
2020/12/24 11:33:13;;;;;;;0.1;0.1;;;;;;;10.7;72.32324;931.863;;;;
2020/12/24 11:35:41;;;;;;;0.4;0.4;;;;;;;10.92;71.24121;931.8261;;;;
2020/12/24 11:38:06;;;;;;;0.9;0.4;;;;;;;11.16;71.16699;931.8297;;;;
2020/12/24 11:40:35;;;;;;;0.3;0.3;;;;;;;11.43;69.32227;931.8938;;;;
2020/12/24 11:43:05;;;;;;;0.1;0.1;;;;;;;11.68;67.80566;931.9384;;;;
2020/12/24 11:45:40;;;;;;;0.7;0.3;;;;;;;11.37;66.27051;931.7534;;;;
2020/12/24 11:48:07;;;;;;;0.1;0.1;;;;;;;11.23;67.29883;931.9055;;;;
2020/12/24 11:50:32;;;;;;;0.3;0.3;;;;;;;11.13;69.53906;931.7781;;;;
2020/12/24 11:53:00;;;;;;;0;0;;;;;;;11.07;67.40234;931.8276;;;;
2020/12/24 11:55:25;;;;;;;2.7;1.4;;;;;;;11.23;71.95605;931.7564;;;;
2020/12/24 11:57:51;;;;;;;1.5;1.2;;;;;;;11.06;70.88574;931.6556;;;;
2020/12/24 12:00:21;;;;;;;0.4;0.2;;;;;;;10.34;71.81934;931.6168;;;;
2020/12/24 12:02:46;;;;;;;2.3;1.3;;;;;;;10.43;72.15332;931.4619;;;;
2020/12/24 12:05:11;;;;;;;4.7;3.4;;;;;;;10.64;71.06934;931.5374;;;;
2020/12/24 12:07:37;;;;;;;2.4;1.7;;;;;;;10.9;73.32715;931.4726;;;;
2020/12/24 12:10:02;;;;;;;2.3;1.4;;;;;;;11.15;72.83301;931.4991;;;;
2020/12/24 12:12:27;;;;;;;46.7;19.8;;;;;;;11.15;70.20313;931.3947;;;;
2020/12/24 12:14:52;;;;;;;1.4;0.8;;;;;;;10.96;71.38379;931.2023;;;;
2020/12/24 12:17:22;;;;;;;0.3;0.3;;;;;;;10.34;71.96582;931.1959;;;;
2020/12/24 12:19:45;;;;;;;0.6;0.4;;;;;;;10.38;70.88965;931.2292;;;;
2020/12/24 12:22:11;;;;;;;5.1;2.7;;;;;;;10.33;71.34863;931.2141;;;;
2020/12/24 12:24:36;;;;;;;1.3;0.4;;;;;;;10.5;70.5332;931.1044;;;;
2020/12/24 12:27:01;;;;;;;1.3;0.6;;;;;;;10.09;72.0625;931.0308;;;;
2020/12/24 12:29:26;;;;;;;10.4;6.2;;;;;;;10.3;70.76172;931.067;;;;
2020/12/24 12:31:52;;;;;;;0.2;0.2;;;;;;;10.21;69.20703;930.9709;;;;
2020/12/24 12:34:18;;;;;;;2.2;1.4;;;;;;;10.37;71.84668;930.9634;;;;
2020/12/24 12:36:43;;;;;;;0.9;0.7;;;;;;;10.47;64.97754;930.9716;;;;
2020/12/24 12:39:08;;;;;;;5.3;1.6;;;;;;;10.14;64.73633;930.8733;;;;
2020/12/24 12:41:34;;;;;;;0.9;0.3;;;;;;;10.1;64.25098;930.9799;;;;
2020/12/24 12:44:00;;;;;;;0.1;0.1;;;;;;;10.37;63.90234;930.9356;;;;
2020/12/24 12:46:29;;;;;;;0.2;0.2;;;;;;;10.5;64.45801;930.9316;;;;
2020/12/24 12:48:54;;;;;;;0.1;0.1;;;;;;;10.31;63.35742;930.9866;;;;
2020/12/24 12:51:21;;;;;;;0.2;0.2;;;;;;;10.66;65.94434;930.9124;;;;
2020/12/24 12:53:46;;;;;;;0.3;0.2;;;;;;;10.48;65.81348;930.8497;;;;
2020/12/24 12:56:11;;;;;;;5.5;2;;;;;;;10.61;63.95996;930.8056;;;;
2020/12/24 12:58:37;;;;;;;2.8;1.1;;;;;;;10.73;63.72656;930.8588;;;;
2020/12/24 13:01:02;;;;;;;1.7;0.4;;;;;;;10.95;64.05664;930.8591;;;;
2020/12/24 13:03:27;;;;;;;0.5;0.2;;;;;;;10.8;64.62793;930.8881;;;;
2020/12/24 13:05:53;;;;;;;0.3;0.2;;;;;;;10.96;65.3623;930.8599;;;;
2020/12/24 13:08:18;;;;;;;0.6;0.2;;;;;;;11.03;63.38184;930.9778;;;;
2020/12/24 13:10:46;;;;;;;0.7;0.7;;;;;;;11.03;60.62988;930.9658;;;;
2020/12/24 13:13:11;;;;;;;0.9;0.6;;;;;;;11.19;60.99316;930.8854;;;;
2020/12/24 13:15:38;;;;;;;0.7;0.3;;;;;;;10.81;62.41406;930.8182;;;;
2020/12/24 13:18:03;;;;;;;0.3;0.3;;;;;;;10.69;62.39648;930.7587;;;;
2020/12/24 13:20:28;;;;;;;0.2;0.1;;;;;;;10.69;59.65527;930.7587;;;;
2020/12/24 13:22:54;;;;;;;0.3;0.3;;;;;;;10.36;56.83594;930.6531;;;;
2020/12/24 13:25:19;;;;;;;0;0;;;;;;;10.45;56.55078;930.6412;;;;
2020/12/24 13:27:44;;;;;;;0.2;0.1;;;;;;;10.43;54.12988;930.5491;;;;
2020/12/24 13:30:12;;;;;;;3.3;0.9;;;;;;;10.63;61.08691;930.6323;;;;
2020/12/24 13:32:37;;;;;;;0.4;0.4;;;;;;;10.92;57.85742;930.625;;;;
2020/12/24 13:35:02;;;;;;;1.8;0.2;;;;;;;11.86;58.68262;930.6593;;;;
2020/12/24 13:37:27;;;;;;;1.8;0.7;;;;;;;12.35;55.80273;930.7497;;;;
2020/12/24 13:39:52;;;;;;;0.5;0.4;;;;;;;12.68;55.54688;930.6063;;;;
2020/12/24 13:42:18;;;;;;;0.4;0.2;;;;;;;12.33;51.67285;930.5463;;;;
2020/12/24 13:44:43;;;;;;;0.3;0.3;;;;;;;12.32;53.19531;930.5952;;;;
2020/12/24 13:47:08;;;;;;;0.2;0.2;;;;;;;11.99;57.2793;930.6917;;;;
2020/12/24 13:49:34;;;;;;;0.3;0.2;;;;;;;12.09;57.32715;930.7351;;;;
2020/12/24 13:52:00;;;;;;;0.1;0.1;;;;;;;11.97;57.5752;930.7015;;;;
2020/12/24 13:54:26;;;;;;;0.1;0.1;;;;;;;11.63;57.99902;930.7394;;;;
2020/12/24 13:56:51;;;;;;;0.7;0.6;;;;;;;11.11;60.04492;930.8029;;;;
2020/12/24 13:59:18;;;;;;;1.2;0.7;;;;;;;11.19;60.99316;930.8519;;;;
2020/12/24 14:01:44;;;;;;;0.3;0.3;;;;;;;11.16;62.49902;930.8473;;;;
2020/12/24 14:04:10;;;;;;;1.2;0.6;;;;;;;10.88;65.80566;930.8571;;;;
2020/12/24 14:06:35;;;;;;;3.1;1.3;;;;;;;10.38;67.64746;930.8552;;;;
2020/12/24 14:09:00;;;;;;;0.5;0.5;;;;;;;10.07;69.31055;930.8264;;;;
2020/12/24 14:11:29;;;;;;;30.6;9.1;;;;;;;9.79;69.18457;930.8379;;;;
2020/12/24 14:13:54;;;;;;;4.9;2;;;;;;;9.77;68.95313;930.9213;;;;
2020/12/24 14:16:20;;;;;;;41.8;19.5;;;;;;;9.94;69.0625;930.8301;;;;
2020/12/24 14:18:45;;;;;;;35.4;15.8;;;;;;;9.86;68.78516;930.8947;;;;
2020/12/24 14:21:09;;;;;;;25;11.4;;;;;;;9.84;69.71875;930.9416;;;;
2020/12/24 14:23:36;;;;;;;116.3;43.3;;;;;;;9.85;69.36523;930.9861;;;;
2020/12/24 14:26:00;;;;;;;2.5;1.7;;;;;;;9.58;71.35156;931.0067;;;;
2020/12/24 14:28:25;;;;;;;4.1;2.5;;;;;;;9.23;71.32715;931.0455;;;;
2020/12/24 14:30:54;;;;;;;4.3;2.2;;;;;;;9.05;66.33594;931.0305;;;;
2020/12/24 14:33:19;;;;;;;5.6;2.6;;;;;;;9.01;72.68945;931.0525;;;;
2020/12/24 14:35:44;;;;;;;2.2;1.3;;;;;;;8.97;72.86523;931.0069;;;;
2020/12/24 14:38:09;;;;;;;1.7;1;;;;;;;9.08;68.47949;930.9821;;;;
2020/12/24 14:40:34;;;;;;;5.8;1.8;;;;;;;9.22;66.72559;930.9375;;;;
2020/12/24 14:42:59;;;;;;;2.4;1.7;;;;;;;9.15;69.07129;930.9656;;;;
2020/12/24 14:45:25;;;;;;;4.9;1.4;;;;;;;9.05;69.64746;931.0217;;;;
2020/12/24 14:47:52;;;;;;;0.3;0.3;;;;;;;8.78;64.00879;930.8725;;;;
2020/12/24 14:50:17;;;;;;;0.5;0.5;;;;;;;8.63;67.38477;930.9409;;;;
2020/12/24 14:52:45;;;;;;;1.5;0.6;;;;;;;8.58;68.46875;930.9966;;;;
2020/12/24 14:55:12;;;;;;;1.4;1;;;;;;;8.72;69.96973;931.0341;;;;
2020/12/24 14:57:37;;;;;;;6;3;;;;;;;8.86;69.46875;931.0715;;;;
2020/12/24 15:00:02;;;;;;;3.4;2;;;;;;;8.92;70.35352;931.0233;;;;
2020/12/24 15:02:28;;;;;;;1.7;1.4;;;;;;;8.96;70.52051;931.0544;;;;
2020/12/24 15:04:54;;;;;;;3.1;1.5;;;;;;;9;71.39258;931.026;;;;
2020/12/24 15:07:20;;;;;;;3.2;2.2;;;;;;;8.87;72.12012;931.0883;;;;
2020/12/24 15:09:45;;;;;;;4.6;1.4;;;;;;;8.68;71.97461;931.0856;;;;
2020/12/24 15:12:12;;;;;;;3.7;1.4;;;;;;;8.6;71.46094;931.0421;;;;
2020/12/24 15:14:37;;;;;;;0.9;0.6;;;;;;;8.32;72.57324;931.0684;;;;
2020/12/24 15:17:04;;;;;;;0.6;0.5;;;;;;;8.14;73.03125;931.1003;;;;
2020/12/24 15:19:28;;;;;;;0.2;0.2;;;;;;;7.91;73.87695;931.0365;;;;
2020/12/24 15:21:54;;;;;;;0.7;0.6;;;;;;;7.95;74.73535;931.204;;;;
2020/12/24 15:24:19;;;;;;;1.2;0.9;;;;;;;7.99;75.42285;931.1473;;;;
2020/12/24 15:26:46;;;;;;;1.5;1.2;;;;;;;8.11;74.42285;931.0659;;;;
2020/12/24 15:29:11;;;;;;;3.6;1.2;;;;;;;8.23;73.36426;931.1091;;;;
2020/12/24 15:31:39;;;;;;;0.9;0.7;;;;;;;8.24;71.51465;931.1393;;;;
2020/12/24 15:34:04;;;;;;;0.7;0.7;;;;;;;8.23;72.16211;931.1671;;;;
2020/12/24 15:36:29;;;;;;;2.8;1.5;;;;;;;8.05;73.49316;931.1512;;;;
2020/12/24 15:38:55;;;;;;;1.6;1;;;;;;;8.17;72.61621;931.0244;;;;